createdAt,value
2023-05-24T00:02:13.453Z,100905.56
2023-05-24T00:04:45.487Z,100909.00
2023-05-24T00:07:12.841Z,100904.47
2023-05-24T00:09:39.704Z,100909.63
2023-05-24T00:12:06.736Z,100909.44
2023-05-24T00:14:33.791Z,100911.69
2023-05-24T00:17:01.178Z,100916.94
2023-05-24T00:19:28.180Z,100911.91
2023-05-24T00:21:55.924Z,100914.47
2023-05-24T00:24:23.118Z,100920.09
2023-05-24T00:26:50.141Z,100918.22
2023-05-24T00:29:17.036Z,100919.34
2023-05-24T00:31:44.103Z,100915.19
2023-05-24T00:34:12.519Z,100915.19
2023-05-24T00:36:39.482Z,100911.72
2023-05-24T00:39:06.706Z,100920.75
2023-05-24T00:41:33.873Z,100914.22
2023-05-24T00:44:00.773Z,100909.66
2023-05-24T00:46:30.871Z,100922.69
2023-05-24T00:48:58.652Z,100913.66
2023-05-24T00:51:27.628Z,100912.97
2023-05-24T00:53:55.238Z,100917.06
2023-05-24T00:56:26.026Z,100915.53
2023-05-24T00:58:56.394Z,100918.13
2023-05-24T01:01:26.925Z,100914.22
2023-05-24T01:03:54.750Z,100909.19
2023-05-24T01:06:22.112Z,100912.31
2023-05-24T01:09:26.658Z,100917.16
2023-05-24T01:12:33.720Z,100914.97
2023-05-24T01:15:31.002Z,100911.78
2023-05-24T01:18:26.402Z,100920.13
2023-05-24T01:21:06.273Z,100917.53
2023-05-24T01:23:53.206Z,100912.97
2023-05-24T01:26:35.703Z,100912.47
2023-05-24T01:29:06.116Z,100910.31
2023-05-24T01:31:34.536Z,100918.34
2023-05-24T01:34:04.506Z,100919.50
2023-05-24T01:36:31.395Z,100915.09
2023-05-24T01:39:01.205Z,100921.56
2023-05-24T01:42:06.148Z,100910.75
2023-05-24T01:44:56.660Z,100925.69
2023-05-24T01:47:47.755Z,100925.00
2023-05-24T01:50:20.356Z,100920.03
2023-05-24T01:52:49.025Z,100929.94
2023-05-24T01:55:19.985Z,100918.75
2023-05-24T01:57:49.164Z,100922.63
2023-05-24T02:00:19.938Z,100936.22
2023-05-24T02:02:47.034Z,100928.28
2023-05-24T02:05:14.028Z,100930.47
2023-05-24T02:07:42.031Z,100932.63
2023-05-24T02:10:09.383Z,100924.47
2023-05-24T02:12:36.361Z,100922.97
2023-05-24T02:15:05.075Z,100926.47
2023-05-24T02:17:33.431Z,100931.44
2023-05-24T02:20:00.600Z,100929.25
2023-05-24T02:22:28.811Z,100925.34
2023-05-24T02:25:01.134Z,100924.09
2023-05-24T02:27:28.512Z,100927.06
2023-05-24T02:29:58.110Z,100936.75
2023-05-24T02:32:25.052Z,100926.84
2023-05-24T02:34:51.976Z,100925.91
2023-05-24T02:37:18.827Z,100928.47
2023-05-24T02:39:48.506Z,100921.63
2023-05-24T02:42:17.945Z,100916.41
2023-05-24T02:44:48.191Z,100930.56
2023-05-24T02:47:15.982Z,100929.81
2023-05-24T02:49:42.982Z,100924.50
2023-05-24T02:52:09.943Z,100918.78
2023-05-24T02:54:37.279Z,100927.31
2023-05-24T02:57:06.914Z,100924.03
2023-05-24T02:59:34.608Z,100920.84
2023-05-24T03:02:04.187Z,100929.03
2023-05-24T03:04:31.234Z,100918.78
2023-05-24T03:06:58.259Z,100927.53
2023-05-24T03:09:25.189Z,100935.13
2023-05-24T03:11:54.993Z,100930.94
2023-05-24T03:14:25.388Z,100924.50
2023-05-24T03:16:52.368Z,100930.75
2023-05-24T03:19:19.317Z,100934.75
2023-05-24T03:21:47.751Z,100933.41
2023-05-24T03:24:14.709Z,100936.47
2023-05-24T03:26:41.557Z,100934.28
2023-05-24T03:29:09.307Z,100936.84
2023-05-24T03:31:40.255Z,100933.44
2023-05-24T03:34:09.190Z,100939.31
2023-05-24T03:36:38.357Z,100946.31
2023-05-24T03:39:08.305Z,100953.75
2023-05-24T03:41:49.589Z,100943.47
2023-05-24T03:44:19.797Z,100949.38
2023-05-24T03:46:46.851Z,100949.38
2023-05-24T03:49:13.657Z,100951.66
2023-05-24T03:51:40.557Z,100947.84
2023-05-24T03:54:07.854Z,100961.16
2023-05-24T03:56:34.782Z,100965.91
2023-05-24T03:59:04.504Z,100957.13
2023-05-24T04:01:34.728Z,100957.63
2023-05-24T04:04:04.713Z,100956.78
2023-05-24T04:06:36.976Z,100955.44
2023-05-24T04:09:08.185Z,100957.16
2023-05-24T04:11:36.471Z,100961.31
2023-05-24T04:14:04.029Z,100952.63
2023-05-24T04:16:34.613Z,100959.16
2023-05-24T04:19:05.366Z,100961.34
2023-05-24T04:21:33.554Z,100968.59
2023-05-24T04:24:04.605Z,100976.44
2023-05-24T04:26:31.961Z,100967.31
2023-05-24T04:28:58.760Z,100966.06
2023-05-24T04:31:26.587Z,100968.59
2023-05-24T04:33:53.546Z,100971.50
2023-05-24T04:36:23.150Z,100975.44
2023-05-24T04:38:57.766Z,100980.44
2023-05-24T04:41:24.985Z,100976.56
2023-05-24T04:43:54.496Z,100981.50
2023-05-24T04:46:21.503Z,100976.09
2023-05-24T04:48:48.515Z,100982.94
2023-05-24T04:51:19.021Z,100985.03
2023-05-24T04:53:46.238Z,100999.06
2023-05-24T04:56:17.358Z,100990.88
2023-05-24T04:58:44.624Z,100994.41
2023-05-24T05:01:11.602Z,100992.91
2023-05-24T05:03:38.595Z,100991.84
2023-05-24T05:06:05.982Z,100998.78
2023-05-24T05:08:32.960Z,101000.94
2023-05-24T05:11:02.809Z,101010.84
2023-05-24T05:13:29.888Z,101016.13
2023-05-24T05:15:56.870Z,101004.41
2023-05-24T05:18:26.456Z,101004.25
2023-05-24T05:20:53.372Z,101020.34
2023-05-24T05:23:23.413Z,101025.19
2023-05-24T05:25:50.363Z,101020.31
2023-05-24T05:28:17.376Z,101017.97
2023-05-24T05:30:44.376Z,101019.50
2023-05-24T05:33:11.667Z,101018.34
2023-05-24T05:35:38.815Z,101024.72
2023-05-24T05:38:08.306Z,101031.31
2023-05-24T05:40:37.753Z,101039.25
2023-05-24T05:43:08.874Z,101033.84
2023-05-24T05:45:35.772Z,101037.75
2023-05-24T05:48:05.760Z,101041.56
2023-05-24T05:50:32.914Z,101044.47
2023-05-24T05:53:00.332Z,101035.84
2023-05-24T05:55:27.784Z,101045.09
2023-05-24T05:57:54.973Z,101043.66
2023-05-24T06:00:22.561Z,101049.38
2023-05-24T06:02:49.852Z,101059.31
2023-05-24T06:05:16.962Z,101056.38
2023-05-24T06:07:43.936Z,101048.59
2023-05-24T06:10:11.345Z,101054.38
2023-05-24T06:12:41.851Z,101061.72
2023-05-24T06:15:09.458Z,101064.75
2023-05-24T06:17:37.436Z,101054.56
2023-05-24T06:20:11.357Z,101050.66
2023-05-24T06:22:40.113Z,101061.25
2023-05-24T06:25:08.495Z,101065.72
2023-05-24T06:27:35.464Z,101063.53
2023-05-24T06:30:02.465Z,101068.22
2023-05-24T06:32:29.673Z,101071.47
2023-05-24T06:34:56.719Z,101074.81
2023-05-24T06:37:25.906Z,101076.13
2023-05-24T06:39:52.822Z,101074.25
2023-05-24T06:42:19.760Z,101079.03
2023-05-24T06:44:46.928Z,101085.19
2023-05-24T06:47:14.142Z,101090.41
2023-05-24T06:49:42.231Z,101096.88
2023-05-24T06:52:09.467Z,101090.53
2023-05-24T06:54:41.331Z,101089.19
2023-05-24T06:57:13.257Z,101091.06
2023-05-24T06:59:40.367Z,101101.69
2023-05-24T07:02:07.321Z,101098.31
2023-05-24T07:04:34.488Z,101094.28
2023-05-24T07:07:03.437Z,101093.06
2023-05-24T07:09:30.375Z,101096.88
2023-05-24T07:11:57.469Z,101103.03
2023-05-24T07:14:35.272Z,101108.75
2023-05-24T07:17:03.411Z,101103.44
2023-05-24T07:19:30.644Z,101109.69
2023-05-24T07:21:57.837Z,101104.09
2023-05-24T07:24:28.917Z,101107.72
2023-05-24T07:26:57.844Z,101120.00
2023-05-24T07:29:29.468Z,101113.31
2023-05-24T07:32:00.915Z,101111.06
2023-05-24T07:34:30.396Z,101107.41
2023-05-24T07:37:01.434Z,101118.75
2023-05-24T07:39:28.773Z,101124.06
2023-05-24T07:41:55.882Z,101120.59
2023-05-24T07:44:27.318Z,101131.38
2023-05-24T07:46:56.078Z,101119.75
2023-05-24T07:49:23.663Z,101116.63
2023-05-24T07:51:57.155Z,101125.84
2023-05-24T07:54:26.661Z,101123.56
2023-05-24T07:56:56.081Z,101132.28
2023-05-24T07:59:23.228Z,101132.03
2023-05-24T08:01:50.605Z,101132.72
2023-05-24T08:04:17.545Z,101137.34
2023-05-24T08:06:46.982Z,101129.78
2023-05-24T08:09:14.126Z,101143.25
2023-05-24T08:11:44.558Z,101154.97
2023-05-24T08:14:12.030Z,101148.69
2023-05-24T08:16:39.358Z,101145.84
2023-05-24T08:19:07.090Z,101148.63
2023-05-24T08:21:34.215Z,101148.38
2023-05-24T08:24:03.011Z,101158.09
2023-05-24T08:26:32.104Z,101155.63
2023-05-24T08:28:58.962Z,101156.81
2023-05-24T08:31:26.680Z,101161.34
2023-05-24T08:33:56.394Z,101158.81
2023-05-24T08:36:23.475Z,101157.34
2023-05-24T08:38:51.379Z,101173.47
2023-05-24T08:41:20.451Z,101160.25
2023-05-24T08:43:47.572Z,101155.47
2023-05-24T08:46:18.248Z,101160.13
2023-05-24T08:48:46.374Z,101163.88
2023-05-24T08:51:17.131Z,101161.09
2023-05-24T08:53:49.021Z,101162.31
2023-05-24T08:56:23.515Z,101166.13
2023-05-24T08:58:51.072Z,101170.16
2023-05-24T09:01:18.168Z,101160.03
2023-05-24T09:03:47.326Z,101167.75
2023-05-24T09:06:17.796Z,101176.72
2023-05-24T09:08:47.740Z,101174.59
2023-05-24T09:11:17.031Z,101172.41
2023-05-24T09:13:45.999Z,101171.84
2023-05-24T09:16:15.489Z,101185.94
2023-05-24T09:18:43.306Z,101185.47
2023-05-24T09:21:13.699Z,101181.53
2023-05-24T09:23:41.921Z,101176.53
2023-05-24T09:26:11.608Z,101174.00
2023-05-24T09:28:38.792Z,101187.03
2023-05-24T09:31:08.982Z,101179.34
2023-05-24T09:33:36.960Z,101187.38
2023-05-24T09:36:05.382Z,101185.13
2023-05-24T09:38:32.433Z,101185.31
2023-05-24T09:41:08.732Z,101186.03
2023-05-24T09:43:47.871Z,101187.28
2023-05-24T09:46:22.099Z,101195.75
2023-05-24T09:49:02.757Z,101183.03
2023-05-24T09:51:32.927Z,101184.50
2023-05-24T09:54:03.527Z,101186.47
2023-05-24T09:56:31.293Z,101186.78
2023-05-24T09:59:06.473Z,101181.56
2023-05-24T10:01:34.326Z,101183.88
2023-05-24T10:04:06.851Z,101184.53
2023-05-24T10:06:40.090Z,101187.84
2023-05-24T10:09:10.260Z,101199.56
2023-05-24T10:11:37.743Z,101209.09
2023-05-24T10:14:07.201Z,101200.09
2023-05-24T10:16:34.528Z,101203.00
2023-05-24T10:19:01.550Z,101196.19
2023-05-24T10:21:29.564Z,101206.31
2023-05-24T10:24:02.226Z,101203.09
2023-05-24T10:26:33.279Z,101211.78
2023-05-24T10:29:07.209Z,101209.44
2023-05-24T10:31:37.807Z,101225.25
2023-05-24T10:34:08.323Z,101213.50
2023-05-24T10:36:36.075Z,101215.19
2023-05-24T10:39:04.080Z,101215.31
2023-05-24T10:41:42.546Z,101204.72
2023-05-24T10:44:18.751Z,101203.63
2023-05-24T10:47:28.852Z,101201.38
2023-05-24T10:49:58.582Z,101206.53
2023-05-24T10:52:36.547Z,101205.31
2023-05-24T10:55:05.515Z,101205.28
2023-05-24T10:57:37.136Z,101204.09
2023-05-24T11:03:09.633Z,101204.53
2023-05-24T11:05:47.131Z,101210.78
2023-05-24T11:08:14.332Z,101219.16
2023-05-24T11:10:44.531Z,101209.81
2023-05-24T11:13:11.962Z,101204.19
2023-05-24T11:15:53.896Z,101213.50
2023-05-24T11:18:30.947Z,101199.78
2023-05-24T11:21:08.325Z,101211.44
2023-05-24T11:23:38.115Z,101203.38
2023-05-24T11:26:07.576Z,101201.25
2023-05-24T11:28:37.799Z,101197.34
2023-05-24T11:31:08.856Z,101205.47
2023-05-24T11:33:44.664Z,101200.09
2023-05-24T11:36:11.937Z,101194.97
2023-05-24T11:38:45.830Z,101203.84
2023-05-24T11:41:16.292Z,101198.22
2023-05-24T11:43:43.722Z,101206.16
2023-05-24T11:46:14.211Z,101198.72
2023-05-24T11:48:42.269Z,101205.69
2023-05-24T11:51:10.661Z,101209.22
2023-05-24T11:53:37.815Z,101219.16
2023-05-24T11:56:05.504Z,101215.09
2023-05-24T11:58:55.790Z,101227.91
2023-05-24T12:01:31.635Z,101235.25
2023-05-24T12:03:58.841Z,101238.25
2023-05-24T12:06:35.103Z,101234.91
2023-05-24T12:09:02.343Z,101228.34
2023-05-24T12:11:32.115Z,101219.84
2023-05-24T12:13:59.581Z,101226.13
2023-05-24T12:16:32.469Z,101218.75
2023-05-24T12:19:04.168Z,101218.50
2023-05-24T12:21:42.304Z,101219.28
2023-05-24T12:24:15.579Z,101220.81
2023-05-24T12:26:45.010Z,101212.72
2023-05-24T12:29:12.880Z,101216.47
2023-05-24T12:31:46.322Z,101212.03
2023-05-24T12:34:14.588Z,101203.44
2023-05-24T12:36:43.978Z,101205.94
2023-05-24T12:39:21.744Z,101206.50
2023-05-24T12:41:55.906Z,101209.31
2023-05-24T12:44:28.903Z,101205.16
2023-05-24T12:46:59.722Z,101202.16
2023-05-24T12:49:27.576Z,101210.66
2023-05-24T12:51:56.127Z,101217.72
2023-05-24T12:54:26.453Z,101216.63
2023-05-24T12:56:56.761Z,101218.44
2023-05-24T12:59:24.374Z,101227.13
2023-05-24T13:01:52.314Z,101231.28
2023-05-24T13:04:21.725Z,101221.28
2023-05-24T13:06:48.997Z,101212.47
2023-05-24T13:09:19.355Z,101217.31
2023-05-24T13:11:49.051Z,101219.16
2023-05-24T13:14:17.088Z,101221.34
2023-05-24T13:16:44.590Z,101218.09
2023-05-24T13:19:12.677Z,101202.66
2023-05-24T13:21:39.913Z,101212.09
2023-05-24T13:24:08.093Z,101202.16
2023-05-24T13:26:38.354Z,101204.03
2023-05-24T13:31:45.117Z,101198.78
2023-05-24T13:34:12.472Z,101209.47
2023-05-24T13:36:39.699Z,101214.41
2023-05-24T13:41:43.056Z,101218.38
2023-05-24T13:44:14.965Z,101218.63
2023-05-24T13:46:42.428Z,101217.47
2023-05-24T13:49:10.040Z,101219.09
2023-05-24T13:51:37.685Z,101216.03
2023-05-24T13:54:10.412Z,101214.34
2023-05-24T13:56:37.477Z,101216.44
2023-05-24T13:59:06.585Z,101216.78
2023-05-24T14:01:34.416Z,101214.47
2023-05-24T14:04:05.662Z,101210.38
2023-05-24T14:06:33.213Z,101197.75
2023-05-24T14:09:00.981Z,101211.47
2023-05-24T14:11:31.878Z,101212.94
2023-05-24T14:16:30.157Z,101215.44
2023-05-24T14:18:58.750Z,101225.13
2023-05-24T14:21:27.563Z,101213.09
2023-05-24T14:23:56.940Z,101203.53
2023-05-24T14:26:24.334Z,101211.47
2023-05-24T14:28:56.001Z,101204.09
2023-05-24T14:31:24.200Z,101199.41
2023-05-24T14:33:51.762Z,101186.25
2023-05-24T14:36:18.748Z,101194.78
2023-05-24T14:38:45.777Z,101195.69
2023-05-24T14:41:12.913Z,101197.13
2023-05-24T14:43:41.512Z,101201.16
2023-05-24T14:46:08.480Z,101197.97
2023-05-24T14:48:37.589Z,101197.16
2023-05-24T14:51:04.664Z,101202.69
2023-05-24T14:53:31.829Z,101196.88
2023-05-24T14:56:02.295Z,101202.47
2023-05-24T14:58:32.158Z,101204.13
2023-05-24T15:01:03.154Z,101200.03
2023-05-24T15:03:33.241Z,101201.66
2023-05-24T15:06:00.716Z,101207.69
2023-05-24T15:08:28.084Z,101203.59
2023-05-24T15:10:56.170Z,101206.91
2023-05-24T15:13:25.998Z,101205.47
2023-05-24T15:15:55.015Z,101208.63
2023-05-24T15:18:21.840Z,101208.91
2023-05-24T15:20:49.285Z,101206.88
2023-05-24T15:23:17.247Z,101199.78
2023-05-24T15:25:46.690Z,101199.22
2023-05-24T15:28:14.910Z,101189.13
2023-05-24T15:30:45.070Z,101198.06
2023-05-24T15:33:12.174Z,101194.53
2023-05-24T15:35:41.999Z,101208.41
2023-05-24T15:38:08.876Z,101210.16
2023-05-24T15:40:35.875Z,101196.63
2023-05-24T15:43:03.322Z,101197.47
2023-05-24T15:45:33.352Z,101203.06
2023-05-24T15:48:00.265Z,101200.97
2023-05-24T15:50:47.521Z,101202.66
2023-05-24T15:53:22.012Z,101202.00
2023-05-24T15:55:48.997Z,101191.19
2023-05-24T15:58:15.959Z,101199.91
2023-05-24T16:00:43.356Z,101202.75
2023-05-24T16:03:10.768Z,101196.88
2023-05-24T16:05:45.005Z,101198.19
2023-05-24T16:08:13.435Z,101201.34
2023-05-24T16:10:40.783Z,101209.16
2023-05-24T16:13:07.853Z,101202.16
2023-05-24T16:15:37.623Z,101201.31
2023-05-24T16:18:04.845Z,101205.00
2023-05-24T16:23:12.302Z,101217.31
2023-05-24T16:25:39.135Z,101219.97
2023-05-24T16:28:06.120Z,101223.47
2023-05-24T16:30:33.024Z,101224.13
2023-05-24T16:32:59.885Z,101219.25
2023-05-24T16:35:26.948Z,101212.41
2023-05-24T16:37:56.134Z,101223.81
2023-05-24T16:40:23.139Z,101219.94
2023-05-24T16:42:51.527Z,101220.81
2023-05-24T16:45:19.224Z,101214.66
2023-05-24T16:47:48.404Z,101222.50
2023-05-24T16:50:15.471Z,101223.00
2023-05-24T16:52:46.024Z,101218.59
2023-05-24T16:55:13.094Z,101224.19
2023-05-24T16:57:40.034Z,101238.69
2023-05-24T17:00:09.003Z,101239.66
2023-05-24T17:02:39.666Z,101230.63
2023-05-24T17:05:07.364Z,101228.16
2023-05-24T17:07:34.480Z,101225.44
2023-05-24T17:10:01.569Z,101230.25
2023-05-24T17:12:29.892Z,101226.72
2023-05-24T17:14:56.829Z,101226.16
2023-05-24T17:17:24.070Z,101220.50
2023-05-24T17:19:51.294Z,101219.63
2023-05-24T17:22:23.003Z,101219.16
2023-05-24T17:24:52.035Z,101218.88
2023-05-24T17:27:22.145Z,101227.69
2023-05-24T17:29:49.443Z,101224.31
2023-05-24T17:32:16.439Z,101229.66
2023-05-24T17:34:43.217Z,101224.84
2023-05-24T17:37:10.750Z,101227.66
2023-05-24T17:39:38.995Z,101234.19
2023-05-24T17:42:08.399Z,101239.47
2023-05-24T17:44:35.713Z,101242.91
2023-05-24T17:47:02.609Z,101236.97
2023-05-24T17:49:30.056Z,101245.72
2023-05-24T17:52:00.381Z,101248.44
2023-05-24T17:54:27.697Z,101250.41
2023-05-24T17:56:56.062Z,101250.56
2023-05-24T17:59:28.552Z,101252.53
2023-05-24T18:01:56.678Z,101250.09
2023-05-24T18:04:23.893Z,101257.16
2023-05-24T18:06:50.758Z,101255.13
2023-05-24T18:09:17.693Z,101250.47
2023-05-24T18:11:50.075Z,101252.72
2023-05-24T18:14:18.918Z,101258.78
2023-05-24T18:16:48.913Z,101259.31
2023-05-24T18:19:17.214Z,101263.09
2023-05-24T18:21:46.669Z,101262.13
2023-05-24T18:24:13.598Z,101265.41
2023-05-24T18:26:40.729Z,101260.81
2023-05-24T18:29:07.888Z,101267.22
2023-05-24T18:31:34.807Z,101277.28
2023-05-24T18:34:02.066Z,101285.06
2023-05-24T18:36:29.836Z,101275.19
2023-05-24T18:38:56.958Z,101281.91
2023-05-24T18:41:23.898Z,101281.03
2023-05-24T18:43:50.801Z,101287.66
2023-05-24T18:46:18.038Z,101292.88
2023-05-24T18:48:49.433Z,101291.97
2023-05-24T18:51:16.419Z,101291.34
2023-05-24T18:53:43.387Z,101290.97
2023-05-24T18:56:10.343Z,101295.69
2023-05-24T18:58:37.337Z,101292.84
2023-05-24T19:01:04.238Z,101291.28
2023-05-24T19:03:31.548Z,101297.22
2023-05-24T19:05:58.426Z,101306.69
2023-05-24T19:08:25.420Z,101301.03
2023-05-24T19:10:52.708Z,101304.00
2023-05-24T19:13:19.738Z,101308.84
2023-05-24T19:15:46.805Z,101304.09
2023-05-24T19:18:13.754Z,101310.56
2023-05-24T19:20:40.723Z,101315.94
2023-05-24T19:23:07.581Z,101328.78
2023-05-24T19:25:41.688Z,101326.78
2023-05-24T19:28:11.184Z,101330.41
2023-05-24T19:30:38.134Z,101331.25
2023-05-24T19:33:05.250Z,101335.47
2023-05-24T19:35:32.215Z,101344.22
2023-05-24T19:37:59.904Z,101340.88
2023-05-24T19:40:26.906Z,101342.59
2023-05-24T19:42:54.927Z,101350.75
2023-05-24T19:45:21.949Z,101338.31
2023-05-24T19:47:48.982Z,101333.13
2023-05-24T19:50:16.547Z,101339.72
2023-05-24T19:52:43.950Z,101339.72
2023-05-24T19:55:13.940Z,101344.34
2023-05-24T19:57:40.939Z,101348.63
2023-05-24T20:00:08.373Z,101347.34
2023-05-24T20:02:38.581Z,101350.41
2023-05-24T20:05:07.041Z,101347.28
2023-05-24T20:07:34.012Z,101357.53
2023-05-24T20:10:01.490Z,101355.63
2023-05-24T20:12:31.030Z,101360.75
2023-05-24T20:14:58.237Z,101357.56
2023-05-24T20:17:25.217Z,101355.47
2023-05-24T20:19:52.935Z,101354.69
2023-05-24T20:22:19.926Z,101355.84
2023-05-24T20:24:46.914Z,101353.09
2023-05-24T20:27:13.876Z,101352.13
2023-05-24T20:29:40.967Z,101349.78
2023-05-24T20:32:08.084Z,101359.47
2023-05-24T20:34:35.120Z,101364.50
2023-05-24T20:37:02.121Z,101365.31
2023-05-24T20:39:30.014Z,101371.66
2023-05-24T20:41:58.437Z,101363.06
2023-05-24T20:44:25.471Z,101364.13
2023-05-24T20:46:52.325Z,101369.78
2023-05-24T20:49:19.304Z,101364.44
2023-05-24T20:51:46.472Z,101361.75
2023-05-24T20:54:14.147Z,101362.81
2023-05-24T20:56:41.304Z,101361.56
2023-05-24T20:59:08.239Z,101369.47
2023-05-24T21:01:35.277Z,101367.22
2023-05-24T21:04:02.293Z,101369.16
2023-05-24T21:06:30.376Z,101367.94
2023-05-24T21:08:59.137Z,101372.16
2023-05-24T21:11:26.335Z,101379.44
2023-05-24T21:13:53.518Z,101375.22
2023-05-24T21:16:20.634Z,101375.31
2023-05-24T21:18:47.645Z,101383.84
2023-05-24T21:21:14.648Z,101392.06
2023-05-24T21:23:41.533Z,101388.53
2023-05-24T21:26:08.365Z,101394.47
2023-05-24T21:28:35.200Z,101398.94
2023-05-24T21:31:02.158Z,101394.00
2023-05-24T21:33:29.022Z,101399.25
2023-05-24T21:35:56.367Z,101407.72
2023-05-24T21:38:23.284Z,101407.53
2023-05-24T21:40:50.316Z,101403.75
2023-05-24T21:43:17.149Z,101404.03
2023-05-24T21:45:44.243Z,101404.13
2023-05-24T21:48:11.333Z,101415.75
2023-05-24T21:50:38.196Z,101409.09
2023-05-24T21:53:05.194Z,101410.63
2023-05-24T21:55:32.337Z,101415.84
2023-05-24T21:57:59.322Z,101406.34
2023-05-24T22:00:27.270Z,101408.41
2023-05-24T22:02:54.313Z,101417.44
2023-05-24T22:05:21.381Z,101419.06
2023-05-24T22:07:48.655Z,101418.56
2023-05-24T22:10:15.850Z,101416.09
2023-05-24T22:12:42.771Z,101418.00
2023-05-24T22:15:10.240Z,101423.63
2023-05-24T22:17:41.138Z,101428.47
2023-05-24T22:20:09.419Z,101426.75
2023-05-24T22:22:40.424Z,101426.28
2023-05-24T22:25:08.517Z,101420.34
2023-05-24T22:27:36.658Z,101424.91
2023-05-24T22:30:03.974Z,101424.25
2023-05-24T22:32:30.982Z,101425.44
2023-05-24T22:34:57.929Z,101423.81
2023-05-24T22:37:24.839Z,101426.50
2023-05-24T22:39:51.724Z,101426.69
2023-05-24T22:42:19.389Z,101422.88
2023-05-24T22:44:46.862Z,101424.31
2023-05-24T22:47:14.318Z,101435.13
2023-05-24T22:49:41.507Z,101426.38
2023-05-24T22:52:09.251Z,101431.81
2023-05-24T22:54:36.552Z,101429.69
2023-05-24T22:57:03.581Z,101435.03
2023-05-24T22:59:32.514Z,101433.16
2023-05-24T23:01:59.682Z,101433.16
2023-05-24T23:04:27.844Z,101437.56
2023-05-24T23:06:55.174Z,101435.34
2023-05-24T23:09:29.482Z,101435.66
2023-05-24T23:11:58.909Z,101441.63
2023-05-24T23:14:25.923Z,101435.88
2023-05-24T23:16:52.878Z,101435.88
2023-05-24T23:19:19.853Z,101436.06
2023-05-24T23:21:46.758Z,101432.34
2023-05-24T23:24:16.192Z,101429.16
2023-05-24T23:26:43.323Z,101429.00
2023-05-24T23:29:10.625Z,101430.47
2023-05-24T23:31:37.660Z,101428.13
2023-05-24T23:34:07.401Z,101431.41
2023-05-24T23:36:34.339Z,101427.59
2023-05-24T23:39:01.200Z,101427.16
2023-05-24T23:41:28.121Z,101421.59
2023-05-24T23:43:54.939Z,101435.25
2023-05-24T23:46:21.784Z,101431.38
2023-05-24T23:48:48.766Z,101427.34
2023-05-24T23:51:15.549Z,101437.22
2023-05-24T23:53:42.420Z,101448.06
2023-05-24T23:56:09.508Z,101447.13
2023-05-24T23:58:38.064Z,101443.28
